Terminal Aerodrome Forecast
Issued by NWS

Home | Current Version | Previous Version | Text Only | Print | Product List | Glossary Off
Versions: 1 2 3 4 5 6 7 8 9 10 11 12 13 14 15 16 17 18 19 20

000
FTUS43 KABR 020500
TAFPIR
TAF
KPIR 020529Z 0206/0306 VRB06KT P6SM SCT250
     FM020900 13010KT P6SM BKN100 OVC250
     FM021600 16017G25KT P6SM SCT060 BKN080 OVC100
     FM030000 13008KT P6SM BKN040 OVC070=

USA.gov is the U.S. government's official web portal to all federal, state and local government web resources and services.